KTOR/TOR METAR and TAF weather

Enter ICAO airport designator
Station Type Date Time Source
KTOR METAR 2019/06/16 20:53 UTC NOAA

KTOR 162053Z AUTO VRB03KT 10SM SCT050 22/11 A2998 RMK AO2 SLP112 T02220111 58012


Station Type Date Time Source
KTOR Decoded METAR 2019/06/16 20:53 UTC NOAA

TORRINGTON MUNICIPAL AIRPORT, WY, United States (KTOR) 42-03N 104-09W 1277M
Jun 16, 2019 - 04:53 PM EDT / 2019.06.16 2053 UTC
Wind: Variable at 3 MPH (3 KT):0
Visibility: 10 mile(s):0
Sky conditions: partly cloudy
Temperature: 72.0 F (22.2 C)
Dew Point: 52.0 F (11.1 C)
Relative Humidity: 49%
Pressure (altimeter): 29.98 in. Hg (1015 hPa)
Pressure tendency: 0.04 inches (1.2 hPa) lower than three hours ago
ob: KTOR 162053Z AUTO VRB03KT 10SM SCT050 22/11 A2998 RMK AO2 SLP112 T02220111 58012
cycle: 21

Station Type Date Time Source
KTOR TAF UTC NOAA

Error!

Example: see airport list